createdAt,value
2023-10-23T00:03:55.995Z,99917.72
2023-10-23T00:08:58.288Z,99922.53
2023-10-23T00:14:00.576Z,99935.75
2023-10-23T00:19:02.081Z,99920.06
2023-10-23T00:24:03.885Z,99933.53
2023-10-23T00:29:05.314Z,99909.31
2023-10-23T00:34:06.831Z,99944.13
2023-10-23T00:39:08.948Z,99942.47
2023-10-23T00:44:10.569Z,99951.22
2023-10-23T00:49:12.520Z,99947.97
2023-10-23T00:54:15.368Z,99944.75
2023-10-23T00:59:17.362Z,99949.41
2023-10-23T01:04:19.589Z,99951.38
2023-10-23T01:09:21.442Z,99927.88
2023-10-23T01:14:23.239Z,99920.31
2023-10-23T01:19:24.726Z,99941.47
2023-10-23T01:24:27.285Z,99952.88
2023-10-23T01:29:28.773Z,99942.94
2023-10-23T01:34:30.745Z,99955.41
2023-10-23T01:39:32.341Z,99957.13
2023-10-23T01:44:33.768Z,99944.94
2023-10-23T01:49:35.507Z,99945.91
2023-10-23T01:54:38.281Z,99945.50
2023-10-23T01:59:40.757Z,99946.38
2023-10-23T02:04:42.381Z,99959.16
2023-10-23T02:09:43.926Z,99958.44
2023-10-23T02:14:45.494Z,99970.41
2023-10-23T02:19:49.430Z,99956.66
2023-10-23T02:24:50.968Z,99967.88
2023-10-23T02:29:52.456Z,99962.13
2023-10-23T02:34:54.846Z,99960.19
2023-10-23T02:39:58.137Z,99960.75
2023-10-23T02:45:00.258Z,99963.88
2023-10-23T02:50:01.932Z,99950.53
2023-10-23T02:55:04.350Z,99976.91
2023-10-23T03:00:06.985Z,99985.94
2023-10-23T03:05:08.758Z,99971.31
2023-10-23T03:10:10.799Z,99980.59
2023-10-23T03:15:15.158Z,99991.00
2023-10-23T03:20:17.155Z,99993.50
2023-10-23T03:25:18.842Z,99951.66
2023-10-23T03:30:20.580Z,99990.44
2023-10-23T03:35:21.942Z,99985.38
2023-10-23T03:40:23.365Z,99969.22
2023-10-23T03:45:25.008Z,99990.28
2023-10-23T03:50:26.395Z,99989.13
2023-10-23T03:55:28.328Z,99976.75
2023-10-23T04:00:31.833Z,99988.41
2023-10-23T04:05:33.601Z,99979.72
2023-10-23T04:10:34.977Z,99970.44
2023-10-23T04:15:36.471Z,99971.00
2023-10-23T04:20:37.805Z,99973.94
2023-10-23T04:25:39.314Z,99973.81
2023-10-23T04:30:40.942Z,99979.41
2023-10-23T04:35:42.557Z,99975.19
2023-10-23T04:40:45.750Z,99973.91
2023-10-23T04:45:47.667Z,99982.91
2023-10-23T04:50:49.128Z,99975.00
2023-10-23T04:55:50.500Z,99951.28
2023-10-23T05:00:53.411Z,99952.13
2023-10-23T05:05:55.646Z,99967.69
2023-10-23T05:11:06.438Z,99960.19
2023-10-23T05:16:08.378Z,99963.59
2023-10-23T05:21:13.805Z,99965.25
2023-10-23T05:26:16.246Z,99966.97
2023-10-23T05:31:17.939Z,99967.78
2023-10-23T05:36:19.399Z,99972.84
2023-10-23T05:41:21.194Z,99975.34
2023-10-23T05:46:23.943Z,99966.63
2023-10-23T05:51:25.716Z,99984.59
2023-10-23T05:56:27.514Z,99998.75
2023-10-23T06:01:29.221Z,99998.03
2023-10-23T06:06:31.482Z,100003.50
2023-10-23T06:11:33.473Z,100004.22
2023-10-23T06:16:34.866Z,99990.16
2023-10-23T06:21:36.336Z,100008.69
2023-10-23T06:26:37.833Z,100008.69
2023-10-23T06:31:41.339Z,100005.41
2023-10-23T06:36:44.124Z,100015.41
2023-10-23T06:41:46.075Z,100002.75
2023-10-23T06:46:47.952Z,100018.19
2023-10-23T06:51:49.415Z,100016.25
2023-10-23T06:56:52.208Z,100017.53
2023-10-23T07:01:54.072Z,100018.41
2023-10-23T07:06:56.584Z,100016.06
2023-10-23T07:11:58.337Z,100017.22
2023-10-23T07:17:00.115Z,100017.94
2023-10-23T07:22:01.616Z,100011.69
2023-10-23T07:27:03.087Z,100010.84
2023-10-23T07:32:05.339Z,100016.59
2023-10-23T07:37:07.009Z,100006.38
2023-10-23T07:42:08.661Z,100000.53
2023-10-23T07:47:10.249Z,99990.41
2023-10-23T07:52:13.179Z,99979.03
2023-10-23T07:57:14.572Z,99952.34
2023-10-23T08:02:16.000Z,99952.63
2023-10-23T08:07:17.925Z,99962.88
2023-10-23T08:12:19.458Z,99974.66
2023-10-23T08:17:39.350Z,99967.34
2023-10-23T08:22:43.588Z,99975.19
2023-10-23T08:27:45.018Z,99969.56
2023-10-23T08:32:52.978Z,99953.19
2023-10-23T08:37:56.760Z,99960.84
2023-10-23T08:42:58.577Z,99959.03
2023-10-23T08:48:00.262Z,99955.03
2023-10-23T08:53:08.569Z,99956.66
2023-10-23T08:58:14.790Z,99967.56
2023-10-23T09:03:17.282Z,99948.31
2023-10-23T09:08:45.920Z,99948.72
2023-10-23T09:13:47.520Z,99941.66
2023-10-23T09:18:53.476Z,99952.75
2023-10-23T09:23:57.336Z,99937.91
2023-10-23T09:28:59.791Z,99953.16
2023-10-23T09:34:01.470Z,99929.72
2023-10-23T09:39:03.954Z,99919.94
2023-10-23T09:44:08.813Z,99914.22
2023-10-23T09:49:11.381Z,99913.47
2023-10-23T09:54:18.451Z,99910.97
2023-10-23T09:59:31.266Z,99893.91
2023-10-23T10:05:00.725Z,99916.44
2023-10-23T10:10:03.486Z,99904.56
2023-10-23T10:15:12.435Z,99922.16
2023-10-23T10:20:14.150Z,99907.72
2023-10-23T10:25:18.208Z,99917.41
2023-10-23T10:30:49.050Z,99872.81
2023-10-23T10:36:00.487Z,99898.63
2023-10-23T10:41:19.276Z,99884.41
2023-10-23T10:46:30.501Z,99872.34
2023-10-23T10:51:33.132Z,99876.72
2023-10-23T10:56:35.127Z,99862.00
2023-10-23T11:01:36.717Z,99850.81
2023-10-23T11:06:38.526Z,99854.84
2023-10-23T11:11:41.677Z,99844.63
2023-10-23T11:16:43.301Z,99812.97
2023-10-23T11:21:45.319Z,99832.75
2023-10-23T11:26:47.978Z,99793.72
2023-10-23T11:31:51.069Z,99793.91
2023-10-23T11:36:52.964Z,99793.59
2023-10-23T11:41:55.869Z,99788.59
2023-10-23T11:47:01.289Z,99771.84
2023-10-23T11:52:04.683Z,99780.03
2023-10-23T11:57:07.065Z,99774.19
2023-10-23T12:02:08.539Z,99775.88
2023-10-23T12:07:10.207Z,99764.13
2023-10-23T12:12:12.924Z,99760.94
2023-10-23T12:17:14.904Z,99753.34
2023-10-23T12:22:16.735Z,99732.34
2023-10-23T12:27:18.126Z,99741.16
2023-10-23T12:33:18.930Z,99720.03
2023-10-23T12:37:41.509Z,99694.50
2023-10-23T12:42:44.547Z,99713.13
2023-10-23T12:47:46.490Z,99697.25
2023-10-23T12:52:49.552Z,99689.03
2023-10-23T12:57:53.828Z,99677.31
2023-10-23T13:02:55.390Z,99663.09
2023-10-23T13:07:57.987Z,99650.34
2023-10-23T13:12:59.553Z,99644.00
2023-10-23T13:18:02.912Z,99633.94
2023-10-23T13:23:04.973Z,99620.00
2023-10-23T13:28:06.487Z,99611.78
2023-10-23T13:33:07.999Z,99605.94
2023-10-23T13:38:09.768Z,99597.72
2023-10-23T13:43:12.330Z,99581.59
2023-10-23T13:48:15.112Z,99572.69
2023-10-23T13:53:21.581Z,99551.28
2023-10-23T13:58:24.255Z,99536.00
2023-10-23T14:03:29.047Z,99545.38
2023-10-23T14:08:35.188Z,99508.38
2023-10-23T14:13:52.910Z,99541.06
2023-10-23T14:18:54.727Z,99526.50
2023-10-23T14:23:56.380Z,99507.19
2023-10-23T14:28:58.074Z,99496.47
2023-10-23T14:33:59.553Z,99505.19
2023-10-23T14:39:00.933Z,99499.13
2023-10-23T14:44:03.060Z,99503.50
2023-10-23T14:49:04.814Z,99477.00
2023-10-23T14:54:06.579Z,99481.38
2023-10-23T14:59:08.089Z,99479.03
2023-10-23T15:04:10.644Z,99467.63
2023-10-23T15:09:12.429Z,99465.94
2023-10-23T15:14:13.943Z,99446.16
2023-10-23T15:19:15.778Z,99436.41
2023-10-23T15:24:18.172Z,99424.03
2023-10-23T15:29:19.928Z,99391.53
2023-10-23T15:34:22.187Z,99396.41
2023-10-23T15:39:23.823Z,99392.69
2023-10-23T15:44:31.940Z,99391.31
2023-10-23T15:49:33.608Z,99380.13
2023-10-23T15:54:35.307Z,99369.91
2023-10-23T15:59:36.894Z,99362.03
2023-10-23T16:04:38.939Z,99385.53
2023-10-23T16:09:40.938Z,99384.19
2023-10-23T16:14:55.846Z,99389.09
2023-10-23T16:19:58.585Z,99380.88
2023-10-23T16:25:00.262Z,99393.28
2023-10-23T16:30:03.321Z,99376.69
2023-10-23T16:35:05.294Z,99385.75
2023-10-23T16:40:07.451Z,99371.66
2023-10-23T16:45:09.304Z,99373.69
2023-10-23T16:50:11.318Z,99387.47
2023-10-23T16:55:13.040Z,99370.22
2023-10-23T17:00:16.958Z,99389.28
2023-10-23T17:05:18.438Z,99383.31
2023-10-23T17:10:20.484Z,99417.28
2023-10-23T17:15:22.934Z,99408.09
2023-10-23T17:20:25.594Z,99395.69
2023-10-23T17:25:27.295Z,99407.59
2023-10-23T17:30:28.965Z,99408.31
2023-10-23T17:35:30.582Z,99402.47
2023-10-23T17:40:38.096Z,99423.75
2023-10-23T17:45:39.796Z,99436.63
2023-10-23T17:50:41.737Z,99428.41
2023-10-23T17:55:43.221Z,99461.91
2023-10-23T18:00:44.653Z,99456.72
2023-10-23T18:05:47.238Z,99440.31
2023-10-23T18:10:48.592Z,99397.63
2023-10-23T18:15:50.034Z,99383.91
2023-10-23T18:20:55.994Z,99399.47
2023-10-23T18:26:03.269Z,99408.84
2023-10-23T18:31:05.190Z,99425.09
2023-10-23T18:36:14.234Z,99432.47
2023-10-23T18:41:20.075Z,99415.41
2023-10-23T18:46:22.575Z,99402.03
2023-10-23T18:51:25.086Z,99401.34
2023-10-23T18:56:26.723Z,99379.94
2023-10-23T19:01:29.233Z,99383.78
2023-10-23T19:06:31.826Z,99381.94
2023-10-23T19:11:33.303Z,99379.59
2023-10-23T19:16:34.713Z,99385.31
2023-10-23T19:21:36.264Z,99390.47
2023-10-23T19:26:37.738Z,99405.69
2023-10-23T19:31:39.528Z,99408.38
2023-10-23T19:36:41.259Z,99378.91
2023-10-23T19:41:49.725Z,99363.00
2023-10-23T19:46:51.592Z,99347.59
2023-10-23T19:51:54.838Z,99348.16
2023-10-23T19:56:57.402Z,99322.53
2023-10-23T20:02:02.296Z,99307.28
2023-10-23T20:07:04.145Z,99273.50
2023-10-23T20:12:06.075Z,99266.44
2023-10-23T20:17:07.818Z,99272.31
2023-10-23T20:22:09.354Z,99253.41
2023-10-23T20:27:10.737Z,99231.50
2023-10-23T20:32:13.025Z,99223.34
2023-10-23T20:37:14.428Z,99228.88
2023-10-23T20:42:16.054Z,99219.34
2023-10-23T20:47:17.404Z,99225.34
2023-10-23T20:52:18.739Z,99233.38
2023-10-23T20:57:20.312Z,99214.69
2023-10-23T21:02:21.719Z,99220.34
2023-10-23T21:07:23.255Z,99204.63
2023-10-23T21:12:24.728Z,99207.97
2023-10-23T21:17:26.098Z,99196.94
2023-10-23T21:22:27.819Z,99210.03
2023-10-23T21:27:29.259Z,99210.69
2023-10-23T21:32:30.691Z,99208.34
2023-10-23T21:37:32.062Z,99196.66
2023-10-23T21:42:33.427Z,99185.25
2023-10-23T21:47:38.281Z,99175.41
2023-10-23T21:52:40.166Z,99183.91
2023-10-23T21:57:42.262Z,99166.69
2023-10-23T22:02:47.125Z,99167.56
2023-10-23T22:07:49.783Z,99168.22
2023-10-23T22:12:54.699Z,99182.13
2023-10-23T22:17:56.283Z,99167.41
2023-10-23T22:22:57.693Z,99168.72
2023-10-23T22:27:59.170Z,99157.03
2023-10-23T22:38:09.769Z,99159.53
2023-10-23T22:43:14.573Z,99155.88
2023-10-23T22:48:15.927Z,99145.28
2023-10-23T22:53:17.634Z,99135.09
2023-10-23T22:58:20.736Z,99125.50
2023-10-23T23:03:22.465Z,99134.03
2023-10-23T23:08:27.424Z,99138.19
2023-10-23T23:13:29.059Z,99134.88
2023-10-23T23:18:31.503Z,99132.50
2023-10-23T23:23:48.482Z,99144.69
2023-10-23T23:28:49.810Z,99152.44
2023-10-23T23:33:51.271Z,99156.44
2023-10-23T23:38:53.405Z,99151.06
2023-10-23T23:43:54.766Z,99153.78
2023-10-23T23:48:56.276Z,99178.84
2023-10-23T23:53:57.669Z,99176.19
2023-10-23T23:58:59.090Z,99185.25
